Time;durP1;ratioP1;P1;durP2;ratioP2;P2;SDS_P1;SDS_P2;PMS_P1;PMS_P2;Temp;Humidity;BMP_temperature;BMP_pressure;BME280_temperature;BME280_humidity;BME280_pressure;Samples;Min_cycle;Max_cycle;Signal;HPM_P1;HPM_P2
2022/01/16 00:04:07;;;;;;;3.10;1.20;;;;;;;-0.07;66.99;99225.21;104943;1271;74439;-23
2022/01/16 00:06:45;;;;;;;2.00;1.20;;;;;;;-0.21;67.91;99217.36;104802;1271;74954;-23
2022/01/16 00:09:24;;;;;;;2.40;1.40;;;;;;;-0.29;68.08;99217.92;104990;1271;74614;-23
2022/01/16 00:11:56;;;;;;;3.10;1.10;;;;;;;-0.42;68.97;99221.98;105088;1271;61042;-23
2022/01/16 00:14:23;;;;;;;9.50;1.30;;;;;;;-0.51;69.07;99227.20;105168;1271;61136;-23
2022/01/16 00:16:50;;;;;;;4.50;0.90;;;;;;;-0.58;68.97;99228.78;105095;1271;74560;-23
2022/01/16 00:19:17;;;;;;;3.50;1.00;;;;;;;-0.54;67.82;99224.74;105075;1271;75966;-23
2022/01/16 00:21:44;;;;;;;1.70;0.80;;;;;;;-0.55;67.31;99218.31;105349;1271;74106;-23
2022/01/16 00:24:12;;;;;;;2.60;0.80;;;;;;;-0.59;67.12;99211.42;105181;1270;61156;-23
2022/01/16 00:26:40;;;;;;;2.10;0.80;;;;;;;-0.61;67.30;99216.09;104681;1271;61064;-23
2022/01/16 00:29:08;;;;;;;2.70;0.80;;;;;;;-0.59;67.51;99211.62;104865;1272;75352;-23
2022/01/16 00:31:37;;;;;;;2.50;1.00;;;;;;;-0.22;66.57;99210.73;104985;1271;72993;-23
2022/01/16 00:34:05;;;;;;;2.90;1.10;;;;;;;0.15;65.38;99209.57;104704;1271;74647;-23
2022/01/16 00:36:34;;;;;;;3.80;1.70;;;;;;;0.24;65.21;99214.41;104689;1271;61150;-23
2022/01/16 00:39:01;;;;;;;3.30;1.00;;;;;;;-0.03;65.72;99212.48;105096;1271;61016;-23
2022/01/16 00:41:28;;;;;;;3.20;1.10;;;;;;;-0.10;65.91;99218.52;105251;1271;75555;-23
2022/01/16 00:43:55;;;;;;;2.80;1.10;;;;;;;-0.27;66.47;99222.49;104958;1271;75996;-23
2022/01/16 00:46:23;;;;;;;2.60;1.00;;;;;;;-0.26;66.56;99217.17;104835;1271;74498;-23
2022/01/16 00:48:50;;;;;;;4.10;1.20;;;;;;;-0.38;66.79;99216.87;104729;1271;61096;-23
2022/01/16 00:51:18;;;;;;;5.60;1.20;;;;;;;-0.41;67.29;99222.27;104898;1271;61965;-23
2022/01/16 00:53:45;;;;;;;1.80;0.90;;;;;;;-0.53;67.97;99217.71;104967;1271;75508;-23
2022/01/16 00:56:12;;;;;;;3.20;0.90;;;;;;;-0.57;68.23;99222.80;105261;1271;76043;-23
2022/01/16 00:58:40;;;;;;;1.10;0.90;;;;;;;-0.64;68.19;99230.70;105117;1271;72940;-23
2022/01/16 01:01:08;;;;;;;5.60;1.00;;;;;;;-0.61;67.82;99224.46;105308;1271;61110;-23
2022/01/16 01:03:36;;;;;;;2.00;0.90;;;;;;;-0.66;68.09;99230.41;105128;1271;61012;-23
2022/01/16 01:06:04;;;;;;;3.10;1.00;;;;;;;-0.67;68.28;99240.70;105043;1271;73996;-24
2022/01/16 01:08:32;;;;;;;4.70;1.10;;;;;;;-0.64;68.02;99210.59;104954;1271;74914;-24
2022/01/16 01:11:02;;;;;;;1.80;0.80;;;;;;;-0.12;66.49;99186.83;104965;1271;74307;-23
2022/01/16 01:13:33;;;;;;;3.10;1.30;;;;;;;0.09;65.60;99194.59;104842;1271;61076;-23
2022/01/16 01:16:04;;;;;;;5.70;1.70;;;;;;;-0.00;65.48;99206.39;104779;1271;62032;-23
2022/01/16 01:18:35;;;;;;;2.50;1.10;;;;;;;-0.21;66.07;99194.13;104788;1271;75643;-23
2022/01/16 01:21:05;;;;;;;3.00;0.90;;;;;;;-0.17;66.20;99213.44;105053;1271;74979;-23
2022/01/16 01:23:32;;;;;;;2.40;1.20;;;;;;;-0.34;66.88;99222.21;104910;1271;74289;-25
2022/01/16 01:25:59;;;;;;;1.50;0.80;;;;;;;-0.41;67.43;99207.78;104922;1271;61110;-23
2022/01/16 01:28:27;;;;;;;2.00;1.10;;;;;;;-0.46;67.91;99197.35;104816;1271;61117;-23
2022/01/16 01:30:55;;;;;;;3.20;1.30;;;;;;;-0.55;68.49;99223.24;104882;1270;74526;-23
2022/01/16 01:33:24;;;;;;;3.00;1.50;;;;;;;-0.64;68.65;99237.87;104843;1272;74924;-23
2022/01/16 01:35:52;;;;;;;4.30;1.10;;;;;;;-0.64;69.19;99187.39;104935;1271;74368;-24
2022/01/16 01:38:20;;;;;;;4.50;1.40;;;;;;;-0.76;69.49;99163.56;105287;1271;61037;-24
2022/01/16 01:40:49;;;;;;;5.20;1.80;;;;;;;-0.61;69.71;99205.88;105014;1271;61779;-26
2022/01/16 01:51:02;;;;;;;2.10;1.10;;;;;;;-0.27;68.05;99135.64;105316;1271;75629;-24
2022/01/16 01:51:42;;;;;;;5.20;1.60;;;;;;;-0.27;68.04;99107.48;105129;1271;61000;-24
2022/01/16 01:54:09;;;;;;;3.20;1.30;;;;;;;-0.51;69.10;99115.50;104769;1274;61876;-24
2022/01/16 01:56:38;;;;;;;3.30;0.90;;;;;;;-0.53;69.80;99129.37;104867;1274;75518;-24
2022/01/16 01:59:06;;;;;;;4.60;1.40;;;;;;;-0.54;69.59;99148.19;105023;1274;74967;-24
2022/01/16 02:01:33;;;;;;;3.90;1.20;;;;;;;-0.68;69.95;99162.79;104721;1271;74743;-24
2022/01/16 02:04:01;;;;;;;5.10;1.70;;;;;;;-0.77;70.46;99191.05;104768;1274;61134;-24
2022/01/16 02:06:30;;;;;;;5.00;1.70;;;;;;;-0.85;71.02;99200.33;104834;1271;61189;-24
2022/01/16 02:08:59;;;;;;;2.90;1.60;;;;;;;-0.47;69.94;99175.39;104751;1274;75437;-24
2022/01/16 02:11:29;;;;;;;2.90;1.30;;;;;;;-0.03;68.01;99186.02;104705;1272;75919;-24
2022/01/16 02:14:15;;;;;;;6.40;1.70;;;;;;;0.01;67.68;99209.92;104768;1274;73480;-24
2022/01/16 02:28:22;;;;;;;4.50;2.10;;;;;;;-0.81;71.35;99201.89;105102;1271;73517;-25
2022/01/16 02:36:31;;;;;;;8.00;2.20;;;;;;;-0.30;69.92;99226.68;104956;1271;75324;-24
2022/01/16 02:39:11;;;;;;;4.40;1.70;;;;;;;-0.41;69.69;99225.34;105016;1271;73862;-24
2022/01/16 02:41:39;;;;;;;5.40;2.00;;;;;;;-0.28;69.42;99248.48;104957;1271;73115;-24
2022/01/16 02:44:24;;;;;;;4.70;1.90;;;;;;;-0.57;69.49;99249.91;104827;1271;61147;-25
2022/01/16 02:46:51;;;;;;;3.60;1.70;;;;;;;-0.74;70.50;99244.67;104881;1271;62042;-24
2022/01/16 02:49:25;;;;;;;5.00;1.40;;;;;;;-0.78;70.72;99242.73;104736;1271;74573;-24
2022/01/16 02:52:01;;;;;;;7.90;1.60;;;;;;;-0.83;70.40;99254.30;104811;1271;74832;-24
2022/01/16 02:54:30;;;;;;;3.60;1.50;;;;;;;-0.93;70.23;99237.08;104830;1271;74560;-24
2022/01/16 02:56:58;;;;;;;2.20;1.40;;;;;;;-0.96;70.33;99241.24;104826;1271;61143;-24
2022/01/16 02:59:25;;;;;;;4.90;2.00;;;;;;;-0.95;70.11;99254.18;104876;1271;61253;-24
2022/01/16 03:01:52;;;;;;;2.10;1.40;;;;;;;-0.81;69.39;99254.09;104699;1274;75340;-24
2022/01/16 03:04:20;;;;;;;3.50;1.80;;;;;;;-0.30;68.51;99262.86;104688;1274;74796;-25
2022/01/16 03:06:47;;;;;;;5.30;1.60;;;;;;;-0.34;68.12;99268.63;104974;1271;74246;-24
2022/01/16 03:09:15;;;;;;;3.90;1.10;;;;;;;-0.45;67.61;99266.93;104941;1271;61165;-25
2022/01/16 03:11:47;;;;;;;5.50;1.60;;;;;;;-0.52;67.96;99267.14;105265;1271;61794;-24
2022/01/16 03:14:21;;;;;;;3.40;1.80;;;;;;;-0.56;68.10;99264.39;104943;1271;75569;-25
2022/01/16 03:16:51;;;;;;;3.40;1.20;;;;;;;-0.77;68.39;99266.92;104896;1271;74986;-24
2022/01/16 03:22:06;;;;;;;3.70;1.70;;;;;;;-0.92;68.97;99274.19;105095;1271;60981;-24
2022/01/16 03:24:36;;;;;;;3.30;1.40;;;;;;;-1.01;68.84;99269.01;104780;1271;62026;-24
2022/01/16 03:27:12;;;;;;;5.30;1.30;;;;;;;-1.02;69.32;99270.41;104743;1272;75428;-24
2022/01/16 03:29:40;;;;;;;4.30;1.40;;;;;;;-1.09;68.58;99264.83;105019;1271;76158;-24
2022/01/16 03:32:11;;;;;;;2.70;1.30;;;;;;;-1.12;68.33;99256.58;105098;1271;74364;-24
2022/01/16 03:34:38;;;;;;;2.80;1.20;;;;;;;-1.19;68.23;99263.92;105083;1271;61126;-24
2022/01/16 03:37:05;;;;;;;3.50;1.40;;;;;;;-1.21;66.58;99266.88;105082;1270;61077;-24
2022/01/16 03:39:34;;;;;;;4.20;1.20;;;;;;;-1.22;66.74;99277.13;105028;1271;75308;-24
2022/01/16 03:42:01;;;;;;;2.50;1.00;;;;;;;-1.21;67.27;99284.23;104638;1271;75978;-24
2022/01/16 03:44:29;;;;;;;4.10;2.20;;;;;;;-1.27;67.11;99279.13;105075;1271;74379;-24
2022/01/16 03:46:56;;;;;;;4.50;1.60;;;;;;;-1.28;66.28;99280.38;105141;1271;61115;-24
2022/01/16 03:49:25;;;;;;;5.80;1.50;;;;;;;-1.28;65.36;99272.70;105256;1271;61681;-24
2022/01/16 03:51:53;;;;;;;1.30;0.90;;;;;;;-1.26;65.57;99270.58;105088;1271;75718;-24
2022/01/16 03:54:23;;;;;;;1.80;1.10;;;;;;;-1.28;65.49;99259.76;105090;1271;75763;-24
2022/01/16 03:56:50;;;;;;;5.00;1.40;;;;;;;-1.30;65.70;99259.30;105160;1271;74384;-24
2022/01/16 03:59:18;;;;;;;2.70;1.30;;;;;;;-1.31;66.35;99263.59;105312;1270;61247;-24
2022/01/16 04:01:45;;;;;;;2.70;0.80;;;;;;;-1.22;66.93;99270.13;105241;1271;62261;-24
2022/01/16 04:04:12;;;;;;;2.40;0.90;;;;;;;-0.72;65.48;99264.02;105119;1271;74269;-24
2022/01/16 04:06:39;;;;;;;3.10;0.90;;;;;;;-0.59;64.66;99256.45;104859;1271;76033;-24
2022/01/16 04:09:06;;;;;;;2.70;1.20;;;;;;;-0.55;64.09;99256.34;104872;1270;73335;-24
2022/01/16 04:11:34;;;;;;;4.60;1.60;;;;;;;-0.77;64.65;99256.01;104998;1271;61147;-24
2022/01/16 04:14:10;;;;;;;2.80;1.30;;;;;;;-0.78;64.42;99250.06;105205;1271;62269;-24
2022/01/16 04:16:37;;;;;;;5.60;1.10;;;;;;;-0.92;65.10;99257.51;105153;1271;75320;-24
2022/01/16 04:19:05;;;;;;;3.30;1.10;;;;;;;-1.02;65.67;99256.44;105236;1271;75977;-24
2022/01/16 04:21:33;;;;;;;2.10;1.10;;;;;;;-1.12;65.47;99251.44;105264;1271;72840;-24
2022/01/16 04:24:00;;;;;;;1.90;1.10;;;;;;;-1.18;65.94;99259.63;105007;1271;61088;-24
2022/01/16 04:26:27;;;;;;;3.10;1.30;;;;;;;-1.24;65.89;99265.09;104770;1272;61035;-25
2022/01/16 04:28:55;;;;;;;5.00;1.30;;;;;;;-1.30;64.71;99260.51;104675;1274;75407;-24
2022/01/16 04:31:22;;;;;;;4.30;2.00;;;;;;;-1.33;65.64;99253.77;104906;1271;75114;-24
2022/01/16 04:33:50;;;;;;;3.60;1.20;;;;;;;-1.41;65.71;99252.45;104786;1271;73206;-24
2022/01/16 04:36:17;;;;;;;3.90;1.50;;;;;;;-1.44;64.80;99259.20;104850;1271;61538;-24
2022/01/16 04:38:47;;;;;;;3.60;1.50;;;;;;;-1.40;64.99;99269.98;104664;1271;61189;-24
2022/01/16 04:44:02;;;;;;;4.70;1.30;;;;;;;-1.47;66.35;99270.34;104842;1271;76043;-24
2022/01/16 04:46:31;;;;;;;2.60;1.00;;;;;;;-1.44;66.82;99268.05;104663;1271;73348;-24
2022/01/16 04:48:59;;;;;;;5.40;1.40;;;;;;;-1.48;67.12;99264.74;104729;1271;61141;-24
2022/01/16 04:51:27;;;;;;;1.90;0.90;;;;;;;-1.50;67.17;99267.54;104880;1271;62128;-24
2022/01/16 04:53:54;;;;;;;3.30;1.50;;;;;;;-1.32;66.26;99265.48;104699;1274;75380;-23
2022/01/16 04:56:22;;;;;;;5.10;1.40;;;;;;;-0.92;64.51;99271.13;104766;1274;76011;-23
2022/01/16 04:58:49;;;;;;;2.00;1.20;;;;;;;-0.68;64.14;99271.92;104963;1271;74184;-23
2022/01/16 05:01:16;;;;;;;3.50;1.30;;;;;;;-0.90;64.44;99268.68;104886;1274;61108;-24
2022/01/16 05:03:44;;;;;;;2.60;1.10;;;;;;;-1.00;64.19;99261.84;104819;1274;61201;-22
2022/01/16 05:06:11;;;;;;;3.80;1.30;;;;;;;-1.06;63.72;99253.81;105021;1271;75395;-23
2022/01/16 05:08:39;;;;;;;2.80;1.30;;;;;;;-1.12;64.26;99268.65;104996;1271;76129;-22
2022/01/16 05:11:08;;;;;;;16.50;2.20;;;;;;;-1.24;64.82;99268.48;105035;1271;74364;-23
2022/01/16 05:18:52;;;;;;;2.30;1.20;;;;;;;-1.46;65.91;99269.31;104839;1271;75582;-24
2022/01/16 05:21:20;;;;;;;5.70;1.50;;;;;;;-1.43;65.63;99271.94;104928;1271;73933;-22
2022/01/16 05:23:47;;;;;;;1.60;1.30;;;;;;;-1.50;65.20;99270.10;104914;1271;74511;-24
2022/01/16 05:26:17;;;;;;;2.10;1.20;;;;;;;-1.55;65.54;99264.61;104767;1270;61150;-25
2022/01/16 05:28:45;;;;;;;2.50;1.20;;;;;;;-1.57;65.70;99264.32;104961;1271;61061;-23
2022/01/16 05:31:12;;;;;;;3.00;1.20;;;;;;;-1.60;65.11;99249.78;105152;1271;73269;-23
2022/01/16 05:33:40;;;;;;;3.00;1.30;;;;;;;-1.61;64.27;99242.31;104747;1274;74963;-22
2022/01/16 05:36:07;;;;;;;3.00;1.50;;;;;;;-1.62;64.38;99252.05;104832;1274;72246;-22
2022/01/16 05:38:34;;;;;;;3.00;1.20;;;;;;;-1.62;63.87;99259.05;105040;1274;61183;-23
2022/01/16 05:41:02;;;;;;;3.70;1.30;;;;;;;-1.65;63.98;99259.09;105144;1271;60993;-22
2022/01/16 05:43:29;;;;;;;2.60;1.20;;;;;;;-1.63;64.12;99254.11;105154;1274;73916;-23
2022/01/16 05:45:57;;;;;;;2.00;1.40;;;;;;;-1.63;64.08;99258.38;105190;1271;77090;-25
2022/01/16 05:48:26;;;;;;;2.60;1.30;;;;;;;-1.64;64.27;99261.30;105254;1271;73547;-25
2022/01/16 05:50:54;;;;;;;5.90;1.50;;;;;;;-1.64;64.66;99257.38;104934;1271;61185;-25
2022/01/16 05:53:21;;;;;;;3.40;1.50;;;;;;;-1.65;64.50;99256.38;105251;1271;61092;-23
2022/01/16 05:55:49;;;;;;;2.90;1.30;;;;;;;-1.63;64.57;99262.63;104805;1271;75318;-23
2022/01/16 05:58:16;;;;;;;5.10;1.00;;;;;;;-1.63;64.75;99269.10;104923;1271;75799;-25
2022/01/16 06:00:45;;;;;;;2.80;1.10;;;;;;;-1.65;65.36;99263.19;104696;1271;74269;-23
2022/01/16 06:03:13;;;;;;;2.40;1.40;;;;;;;-1.65;65.89;99268.27;104866;1271;61095;-22
2022/01/16 06:05:40;;;;;;;3.00;1.00;;;;;;;-1.65;66.18;99269.81;104978;1271;61221;-24
2022/01/16 06:08:12;;;;;;;2.70;1.00;;;;;;;-1.65;66.57;99266.94;104963;1271;75541;-23
2022/01/16 06:10:39;;;;;;;2.50;1.20;;;;;;;-1.50;65.65;99266.70;105081;1271;74866;-23
2022/01/16 06:13:07;;;;;;;2.00;1.00;;;;;;;-1.12;63.64;99263.54;105151;1274;74750;-23
2022/01/16 06:15:35;;;;;;;3.60;1.20;;;;;;;-0.89;63.03;99271.37;104928;1271;61123;-23
2022/01/16 06:18:03;;;;;;;2.20;1.10;;;;;;;-0.88;63.67;99280.73;104989;1271;61037;-23
2022/01/16 06:20:31;;;;;;;24.70;1.60;;;;;;;-1.04;64.29;99281.19;105176;1271;75973;-23
2022/01/16 06:22:58;;;;;;;3.30;1.30;;;;;;;-1.08;64.87;99289.16;105123;1271;75735;-23
2022/01/16 06:25:25;;;;;;;4.30;1.50;;;;;;;-1.15;65.37;99293.30;105074;1271;74197;-22
2022/01/16 06:27:53;;;;;;;3.00;1.60;;;;;;;-1.28;65.79;99296.38;105078;1271;61076;-23
2022/01/16 06:30:20;;;;;;;3.30;1.30;;;;;;;-1.39;65.73;99297.39;105321;1271;61036;-25
2022/01/16 06:32:47;;;;;;;5.70;1.50;;;;;;;-1.44;65.74;99289.68;104871;1274;75537;-24
2022/01/16 06:35:35;;;;;;;2.60;1.30;;;;;;;-1.46;65.17;99296.55;104543;1277;77317;-23
2022/01/16 06:38:04;;;;;;;3.50;1.40;;;;;;;-1.50;65.28;99293.59;104677;1277;73250;-23
2022/01/16 06:40:31;;;;;;;3.30;1.10;;;;;;;-1.56;64.77;99304.33;104534;1277;61392;-23
2022/01/16 06:42:59;;;;;;;3.30;1.20;;;;;;;-1.58;65.26;99297.06;104518;1277;61898;-23
2022/01/16 06:45:26;;;;;;;2.00;1.20;;;;;;;-1.63;65.21;99293.45;104491;1277;74477;-23
2022/01/16 06:47:54;;;;;;;2.20;1.20;;;;;;;-1.62;64.16;99284.90;104547;1277;75895;-23
2022/01/16 06:50:21;;;;;;;3.10;1.10;;;;;;;-1.62;63.83;99288.48;104373;1277;74218;-23
2022/01/16 06:52:48;;;;;;;4.60;1.10;;;;;;;-1.59;64.71;99287.20;104539;1277;61242;-23
2022/01/16 06:55:16;;;;;;;1.80;1.20;;;;;;;-1.63;65.11;99276.73;104320;1277;61077;-23
2022/01/16 06:57:43;;;;;;;3.00;1.20;;;;;;;-1.64;64.44;99281.55;104549;1277;75470;-23
2022/01/16 07:00:10;;;;;;;4.30;1.40;;;;;;;-1.66;64.21;99282.60;104492;1277;76038;-23
2022/01/16 07:02:38;;;;;;;3.70;1.10;;;;;;;-1.66;64.03;99277.34;104502;1277;73249;-23
2022/01/16 07:05:06;;;;;;;7.30;1.00;;;;;;;-1.65;64.30;99287.52;104537;1277;61048;-23
2022/01/16 07:07:33;;;;;;;3.00;1.30;;;;;;;-1.62;64.70;99290.70;104869;1274;61873;-23
2022/01/16 07:10:01;;;;;;;2.80;1.00;;;;;;;-1.62;65.00;99291.71;104986;1271;75506;-23
2022/01/16 07:12:28;;;;;;;3.70;1.80;;;;;;;-1.61;64.59;99300.89;104836;1271;76218;-23
2022/01/16 07:14:56;;;;;;;3.20;2.20;;;;;;;-1.64;64.71;99299.60;105057;1271;72908;-23
2022/01/16 07:17:29;;;;;;;5.10;1.50;;;;;;;-1.61;65.70;99315.19;105190;1271;61067;-24
2022/01/16 07:19:56;;;;;;;4.70;1.10;;;;;;;-1.62;65.62;99312.33;105300;1271;62088;-24
2022/01/16 07:22:23;;;;;;;4.40;1.40;;;;;;;-1.59;66.13;99322.28;105085;1271;74433;-23
2022/01/16 07:24:51;;;;;;;2.60;1.10;;;;;;;-1.61;64.97;99320.45;104990;1272;75934;-24
2022/01/16 07:27:19;;;;;;;2.60;1.10;;;;;;;-1.56;65.58;99330.05;105247;1271;74241;-24
2022/01/16 07:29:47;;;;;;;5.30;1.30;;;;;;;-1.52;66.10;99340.65;105292;1271;61245;-25
2022/01/16 07:32:14;;;;;;;3.90;1.20;;;;;;;-1.56;65.59;99340.75;104902;1271;61058;-25
2022/01/16 07:34:42;;;;;;;4.10;1.20;;;;;;;-1.53;65.52;99340.17;104769;1272;75583;-23
2022/01/16 07:37:09;;;;;;;0.70;0.50;;;;;;;-1.55;65.17;99340.05;105091;1271;75767;-23
2022/01/16 07:39:37;;;;;;;5.80;1.40;;;;;;;-1.54;65.63;99333.72;105260;1271;74221;-23
2022/01/16 07:42:05;;;;;;;4.50;1.40;;;;;;;-1.54;66.10;99335.23;105251;1271;61651;-23
2022/01/16 07:44:32;;;;;;;4.20;1.40;;;;;;;-1.57;66.20;99330.91;105233;1271;60999;-23
2022/01/16 07:47:00;;;;;;;3.90;1.30;;;;;;;-1.56;65.90;99326.46;104949;1271;74293;-23
2022/01/16 07:49:27;;;;;;;4.60;1.20;;;;;;;-1.56;65.96;99329.02;104914;1271;76145;-23
2022/01/16 07:51:55;;;;;;;7.40;2.30;;;;;;;-1.50;65.86;99328.67;105043;1271;74241;-23
2022/01/16 07:54:22;;;;;;;3.70;1.30;;;;;;;-1.50;66.00;99332.42;105062;1271;61051;-23
2022/01/16 07:56:49;;;;;;;3.60;1.40;;;;;;;-1.13;63.68;99334.29;105036;1274;61018;-23
2022/01/16 07:59:17;;;;;;;3.90;1.40;;;;;;;-0.84;62.87;99333.43;104988;1271;74347;-23
2022/01/16 08:01:44;;;;;;;1.80;1.20;;;;;;;-0.84;63.12;99338.20;104754;1271;75962;-23
2022/01/16 08:04:12;;;;;;;9.20;1.20;;;;;;;-1.05;63.60;99340.17;104627;1274;72900;-23
2022/01/16 08:06:40;;;;;;;4.50;1.10;;;;;;;-1.08;63.43;99343.67;104723;1274;60968;-23
2022/01/16 08:09:07;;;;;;;2.60;0.80;;;;;;;-1.11;63.69;99334.39;105139;1271;61018;-23
2022/01/16 08:11:35;;;;;;;2.70;1.20;;;;;;;-1.15;63.85;99339.63;105019;1271;75246;-21
2022/01/16 08:14:02;;;;;;;2.30;0.90;;;;;;;-1.28;64.19;99338.98;105025;1271;75909;-24
2022/01/16 08:16:29;;;;;;;3.10;1.00;;;;;;;-1.27;64.65;99340.12;104905;1271;74530;-22
2022/01/16 08:18:57;;;;;;;2.50;1.40;;;;;;;-1.26;65.25;99341.98;104848;1271;61158;-24
2022/01/16 08:21:24;;;;;;;3.40;1.00;;;;;;;-1.33;65.59;99340.50;104944;1271;61166;-25
2022/01/16 08:23:51;;;;;;;2.50;1.10;;;;;;;-1.38;66.24;99346.06;104898;1271;74484;-25
2022/01/16 08:26:19;;;;;;;2.80;1.20;;;;;;;-1.40;66.39;99348.17;104869;1271;75929;-25
2022/01/16 08:28:46;;;;;;;2.90;1.10;;;;;;;-1.54;65.64;99341.73;104670;1271;73356;-25
2022/01/16 08:31:14;;;;;;;3.10;1.40;;;;;;;-1.53;66.04;99359.59;105113;1271;61160;-22
2022/01/16 08:33:41;;;;;;;2.90;1.30;;;;;;;-1.53;66.69;99365.19;105034;1274;61057;-22
2022/01/16 08:36:08;;;;;;;2.10;1.10;;;;;;;-1.46;67.24;99359.23;105001;1271;74606;-22
2022/01/16 08:38:36;;;;;;;3.60;1.80;;;;;;;-1.50;67.15;99357.27;104926;1271;75827;-22
2022/01/16 08:41:03;;;;;;;3.90;1.50;;;;;;;-1.46;66.92;99357.00;105087;1271;74224;-22
2022/01/16 08:43:30;;;;;;;3.00;0.90;;;;;;;-1.43;66.72;99352.17;105099;1274;61383;-22
2022/01/16 08:45:58;;;;;;;5.30;1.50;;;;;;;-1.42;66.35;99331.01;105000;1274;62004;-22
2022/01/16 08:48:27;;;;;;;2.60;1.00;;;;;;;-1.43;65.80;99327.29;104908;1274;75455;-22
2022/01/16 08:51:02;;;;;;;3.00;1.50;;;;;;;-1.46;66.09;99333.52;104757;1272;75796;-25
2022/01/16 08:53:29;;;;;;;2.80;1.20;;;;;;;-1.49;66.00;99320.80;105083;1271;74316;-22
2022/01/16 08:55:57;;;;;;;2.40;1.10;;;;;;;-1.50;65.30;99305.34;104966;1271;61096;-22
2022/01/16 08:58:25;;;;;;;1.80;1.00;;;;;;;-1.44;65.63;99315.75;104625;1277;62419;-23
2022/01/16 09:00:52;;;;;;;1.30;0.80;;;;;;;-1.38;65.75;99307.55;104588;1274;75479;-23
2022/01/16 09:03:21;;;;;;;3.80;1.40;;;;;;;-1.36;66.06;99315.52;104800;1272;75869;-24
2022/01/16 09:05:50;;;;;;;4.30;1.10;;;;;;;-1.41;65.52;99300.65;104709;1272;74447;-23
2022/01/16 09:08:18;;;;;;;5.00;2.10;;;;;;;-1.33;65.76;99305.55;104775;1274;61230;-23
2022/01/16 09:10:45;;;;;;;2.80;1.00;;;;;;;-1.38;65.34;99302.47;104770;1274;61854;-23
2022/01/16 09:13:15;;;;;;;2.50;1.10;;;;;;;-1.29;65.90;99311.89;105033;1273;75735;-23
2022/01/16 09:15:44;;;;;;;4.00;1.50;;;;;;;-1.27;65.37;99302.49;105024;1274;76610;-23
2022/01/16 09:18:11;;;;;;;4.30;1.40;;;;;;;-1.32;65.66;99298.20;104922;1271;73308;-23
2022/01/16 09:20:39;;;;;;;2.30;1.90;;;;;;;-1.26;66.05;99297.84;104886;1271;61566;-23
2022/01/16 09:23:06;;;;;;;2.70;1.10;;;;;;;-1.19;65.81;99303.80;105124;1271;61022;-22
2022/01/16 09:25:34;;;;;;;2.90;1.20;;;;;;;-1.27;65.64;99293.61;104794;1271;74575;-23
2022/01/16 09:28:02;;;;;;;2.60;1.00;;;;;;;-1.23;65.72;99294.71;104791;1271;76006;-24
2022/01/16 09:30:30;;;;;;;5.20;2.00;;;;;;;-1.10;65.46;99284.77;104856;1271;74476;-24
2022/01/16 09:32:57;;;;;;;4.30;1.30;;;;;;;-1.19;65.37;99272.61;104762;1271;61244;-23
2022/01/16 09:35:25;;;;;;;3.20;1.10;;;;;;;-1.18;65.35;99276.84;104800;1271;61984;-22
2022/01/16 09:37:53;;;;;;;5.60;1.60;;;;;;;-1.25;65.25;99264.94;104719;1272;74487;-22
2022/01/16 09:40:20;;;;;;;1.80;1.00;;;;;;;-1.32;65.04;99258.67;104899;1271;75037;-23
2022/01/16 09:42:48;;;;;;;4.10;1.20;;;;;;;-1.30;65.00;99248.90;104583;1274;74507;-24
2022/01/16 09:45:17;;;;;;;3.00;1.40;;;;;;;-1.31;65.43;99252.19;105087;1271;61146;-23
2022/01/16 09:47:45;;;;;;;3.40;1.20;;;;;;;-1.30;65.84;99251.64;104836;1271;61709;-22
2022/01/16 09:50:16;;;;;;;2.50;0.90;;;;;;;-1.19;66.08;99252.16;104913;1271;75678;-22
2022/01/16 09:52:44;;;;;;;3.40;1.40;;;;;;;-1.14;65.63;99246.93;105051;1271;76001;-22
2022/01/16 09:55:12;;;;;;;5.30;1.80;;;;;;;-1.18;65.47;99241.23;105130;1271;74290;-23
2022/01/16 09:57:40;;;;;;;4.40;1.90;;;;;;;-1.17;65.57;99242.05;104964;1271;61143;-23
2022/01/16 10:00:10;;;;;;;10.60;1.70;;;;;;;-1.08;65.98;99240.94;105014;1271;61131;-23
2022/01/16 10:02:44;;;;;;;2.30;1.10;;;;;;;-1.06;65.65;99232.68;104840;1271;75424;-23
2022/01/16 10:05:23;;;;;;;4.10;1.50;;;;;;;-1.12;65.86;99237.48;104948;1271;72170;-23
2022/01/16 10:07:50;;;;;;;5.40;1.30;;;;;;;-1.08;66.21;99242.64;104858;1271;74286;-23
2022/01/16 10:10:28;;;;;;;4.40;1.30;;;;;;;-1.13;66.40;99232.75;105308;1271;61148;-23
2022/01/16 10:13:03;;;;;;;5.60;2.00;;;;;;;-1.03;65.69;99232.10;105157;1274;62199;-23
2022/01/16 10:15:31;;;;;;;6.50;2.20;;;;;;;-1.09;65.89;99232.63;105060;1271;73875;-22
2022/01/16 10:18:18;;;;;;;3.40;1.70;;;;;;;-1.09;66.15;99229.20;105073;1271;77295;-23
2022/01/16 10:20:47;;;;;;;5.00;1.80;;;;;;;-1.08;66.32;99239.06;104498;1271;252882;-23
2022/01/16 10:23:17;;;;;;;2.90;1.30;;;;;;;-1.02;66.51;99243.48;104825;1271;61122;-23
2022/01/16 10:25:47;;;;;;;3.60;1.60;;;;;;;-1.01;66.59;99236.95;104719;1272;61035;-22
2022/01/16 10:28:21;;;;;;;5.90;1.70;;;;;;;-0.74;65.08;99228.80;104891;1271;76585;-22
2022/01/16 10:30:58;;;;;;;5.80;1.60;;;;;;;-0.27;63.11;99216.35;104990;1270;75831;-23
2022/01/16 10:33:28;;;;;;;5.20;1.40;;;;;;;0.05;62.01;99217.63;104907;1271;74315;-23
2022/01/16 10:35:56;;;;;;;0.50;0.40;;;;;;;0.07;61.09;99223.19;104958;1274;61196;-23
2022/01/16 10:38:28;;;;;;;7.50;1.60;;;;;;;-0.09;61.75;99225.97;105012;1271;61085;-23
2022/01/16 10:40:59;;;;;;;3.30;1.30;;;;;;;-0.38;62.25;99214.84;105066;1271;75474;-23
2022/01/16 10:43:36;;;;;;;3.20;1.30;;;;;;;-0.72;63.46;99210.50;104858;1271;75931;-22
2022/01/16 10:46:03;;;;;;;3.00;1.50;;;;;;;-0.66;63.73;99214.05;104759;1274;73991;-23
2022/01/16 10:49:17;;;;;;;2.40;1.00;;;;;;;-0.62;64.07;99211.00;104823;1271;61006;-23
2022/01/16 10:52:09;;;;;;;2.50;1.10;;;;;;;-0.59;63.42;99208.20;104875;1271;61129;-24
2022/01/16 10:54:38;;;;;;;3.00;1.20;;;;;;;-0.58;63.62;99209.17;104856;1274;75685;-22
2022/01/16 10:57:26;;;;;;;3.20;1.10;;;;;;;-0.61;64.26;99202.65;104801;1272;76291;-23
2022/01/16 11:00:06;;;;;;;3.00;1.60;;;;;;;-0.55;64.86;99208.93;104781;1271;74429;-22
2022/01/16 11:02:34;;;;;;;3.10;1.70;;;;;;;-0.46;64.83;99211.02;104690;1271;61809;-23
2022/01/16 11:05:06;;;;;;;5.60;1.40;;;;;;;-0.51;64.17;99202.80;105235;1271;61103;-22
2022/01/16 11:07:34;;;;;;;3.50;1.10;;;;;;;-0.21;64.16;99202.31;104890;1271;75527;-25
2022/01/16 11:10:27;;;;;;;4.30;1.20;;;;;;;-0.15;62.57;99197.33;104866;1270;76256;-23
2022/01/16 11:12:58;;;;;;;5.00;1.60;;;;;;;-0.37;63.40;99191.59;104800;1272;74209;-23
2022/01/16 11:15:25;;;;;;;3.20;1.30;;;;;;;-0.10;62.50;99185.05;104821;1274;61101;-24
2022/01/16 11:17:53;;;;;;;3.20;1.10;;;;;;;0.10;62.86;99186.90;104734;1271;61171;-24
2022/01/16 11:20:27;;;;;;;3.70;1.30;;;;;;;0.29;60.94;99175.77;104777;1271;75459;-23
2022/01/16 11:25:43;;;;;;;5.30;1.10;;;;;;;0.41;61.29;99167.31;104848;1271;74148;-23
2022/01/16 11:28:11;;;;;;;3.60;1.20;;;;;;;0.48;60.54;99167.39;105210;1272;61545;-23
2022/01/16 11:30:42;;;;;;;6.00;1.50;;;;;;;0.15;61.09;99161.96;105197;1271;61130;-26
2022/01/16 11:33:09;;;;;;;1.80;1.10;;;;;;;0.39;61.35;99173.02;105181;1271;75499;-23
2022/01/16 11:35:43;;;;;;;4.00;1.40;;;;;;;0.49;61.71;99175.07;105306;1271;76155;-23
2022/01/16 11:38:10;;;;;;;;;;;;;;;0.45;60.94;99157.77;105188;1272;73454;-23
2022/01/16 11:40:44;;;;;;;7.70;1.50;;;;;;;0.33;61.08;99157.88;105108;1274;61111;-24
2022/01/16 11:43:37;;;;;;;5.90;1.40;;;;;;;0.37;61.33;99160.14;105089;1271;61110;-23
2022/01/16 11:47:31;;;;;;;3.10;1.90;;;;;;;0.30;61.87;99157.48;101938;1307;599464;-23
2022/01/16 11:50:07;;;;;;;7.20;2.10;;;;;;;0.09;62.36;99155.86;104422;1284;61539;-24
2022/01/16 11:52:41;;;;;;;4.10;1.50;;;;;;;-0.01;62.37;99160.14;104308;1285;61157;-22
2022/01/16 11:55:12;;;;;;;2.50;1.30;;;;;;;-0.14;63.22;99158.38;104077;1284;71910;-24
2022/01/16 11:57:54;;;;;;;6.30;2.10;;;;;;;-0.16;63.47;99156.05;104421;1284;74952;-24
2022/01/16 12:00:23;;;;;;;5.10;1.90;;;;;;;-0.24;63.43;99152.42;103807;1281;233565;-24
2022/01/16 12:02:55;;;;;;;5.60;1.70;;;;;;;-0.21;64.17;99158.63;104485;1281;61146;-24
2022/01/16 12:05:26;;;;;;;5.60;2.40;;;;;;;-0.10;64.19;99153.66;104463;1284;61086;-22
2022/01/16 12:08:19;;;;;;;5.10;2.50;;;;;;;-0.35;64.24;99145.11;104457;1281;74026;-23
2022/01/16 12:10:50;;;;;;;3.80;1.60;;;;;;;-0.21;64.78;99150.10;104271;1281;74580;-23
2022/01/16 12:13:49;;;;;;;5.70;2.10;;;;;;;-0.16;64.25;99150.77;104503;1281;74533;-24
2022/01/16 12:16:40;;;;;;;11.20;2.80;;;;;;;-0.41;64.86;99144.98;104436;1281;61136;-24
2022/01/16 12:19:42;;;;;;;6.40;2.00;;;;;;;-0.33;64.61;99144.38;104448;1281;62002;-24